createdAt,value
2016-03-16T00:00:38.950Z,48.52
2016-03-16T00:01:39.015Z,49.29
2016-03-16T00:02:39.081Z,48.52
2016-03-16T00:03:39.114Z,48.74
2016-03-16T00:04:39.180Z,48.33
2016-03-16T00:05:39.213Z,48.33
2016-03-16T00:06:39.278Z,48.71
2016-03-16T00:07:39.327Z,48.43
2016-03-16T00:08:39.455Z,48.33
2016-03-16T00:09:39.427Z,48.33
2016-03-16T00:10:39.477Z,48.33
2016-03-16T00:11:39.495Z,48.33
2016-03-16T00:12:39.591Z,48.52
2016-03-16T00:13:39.641Z,48.43
2016-03-16T00:14:39.675Z,48.61
2016-03-16T00:15:39.741Z,48.13
2016-03-16T00:16:39.774Z,48.23
2016-03-16T00:17:39.840Z,48.23
2016-03-16T00:18:39.873Z,48.33
2016-03-16T00:19:39.898Z,48.23
2016-03-16T00:20:39.952Z,48.71
2016-03-16T00:21:40.004Z,48.43
2016-03-16T00:22:40.026Z,48.52
2016-03-16T00:23:40.080Z,48.52
2016-03-16T00:24:40.124Z,48.43
2016-03-16T00:25:40.169Z,48.52
2016-03-16T00:26:40.199Z,48.61
2016-03-16T00:27:40.259Z,48.71
2016-03-16T00:28:40.290Z,49
2016-03-16T00:29:40.352Z,48.61
2016-03-16T00:30:40.388Z,48.71
2016-03-16T00:31:40.467Z,48.71
2016-03-16T00:32:40.516Z,48.52
2016-03-16T00:33:40.547Z,48.23
2016-03-16T00:34:40.597Z,48.9
2016-03-16T00:35:40.662Z,48.33
2016-03-16T00:36:40.696Z,48.23
2016-03-16T00:37:40.745Z,48.8
2016-03-16T00:38:40.794Z,48.33
2016-03-16T00:39:40.858Z,48.23
2016-03-16T00:40:40.877Z,48.71
2016-03-16T00:41:40.957Z,48.71
2016-03-16T00:42:41.006Z,48.8
2016-03-16T00:43:41.040Z,48.8
2016-03-16T00:44:41.105Z,48.61
2016-03-16T00:45:41.155Z,48.61
2016-03-16T00:46:41.203Z,48.8
2016-03-16T00:47:41.269Z,48.71
2016-03-16T00:48:41.319Z,48.8
2016-03-16T00:49:41.337Z,48.61
2016-03-16T00:50:41.402Z,48.52
2016-03-16T00:51:41.452Z,49
2016-03-16T00:52:41.502Z,49.19
2016-03-16T00:53:41.551Z,49
2016-03-16T00:54:41.600Z,49.29
2016-03-16T00:55:41.682Z,49
2016-03-16T00:56:41.730Z,48.61
2016-03-16T00:57:41.765Z,48.9
2016-03-16T00:58:41.800Z,48.71
2016-03-16T00:59:41.911Z,48.71
2016-03-16T01:00:41.914Z,48.61
2016-03-16T01:01:41.963Z,48.8
2016-03-16T01:02:42.044Z,48.71
2016-03-16T01:03:42.063Z,48.71
2016-03-16T01:04:42.097Z,48.8
2016-03-16T01:05:42.177Z,48.71
2016-03-16T01:06:42.227Z,48.33
2016-03-16T01:07:42.280Z,48.71
2016-03-16T01:08:42.299Z,48.61
2016-03-16T01:09:42.363Z,48.33
2016-03-16T01:10:42.428Z,48.33
2016-03-16T01:11:42.462Z,48.43
2016-03-16T01:12:42.512Z,48.23
2016-03-16T01:13:42.581Z,48.52
2016-03-16T01:14:42.631Z,48.52
2016-03-16T01:15:42.665Z,48.71
2016-03-16T01:16:42.730Z,48.71
2016-03-16T01:17:42.781Z,48.8
2016-03-16T01:18:42.829Z,48.61
2016-03-16T01:19:42.895Z,48.61
2016-03-16T01:20:42.944Z,49
2016-03-16T01:21:42.995Z,48.61
2016-03-16T01:22:43.059Z,48.8
2016-03-16T01:23:43.093Z,48.52
2016-03-16T01:24:42.378Z,48.8
2016-03-16T01:25:43.208Z,48.52
2016-03-16T01:26:43.226Z,48.61
2016-03-16T01:27:43.292Z,49
2016-03-16T01:28:43.341Z,48.52
2016-03-16T01:29:43.375Z,48.61
2016-03-16T01:30:43.424Z,48.52
2016-03-16T01:31:43.505Z,48.8
2016-03-16T01:32:43.524Z,48.71
2016-03-16T01:33:43.589Z,48.61
2016-03-16T01:34:43.622Z,48.52
2016-03-16T01:35:43.704Z,48.61
2016-03-16T01:36:43.738Z,48.8
2016-03-16T01:37:43.788Z,49
2016-03-16T01:38:43.837Z,48.71
2016-03-16T01:39:43.902Z,48.9
2016-03-16T01:40:43.936Z,49.19
2016-03-16T01:41:44.016Z,48.8
2016-03-16T01:42:44.051Z,48.8
2016-03-16T01:43:44.084Z,48.8
2016-03-16T01:44:44.134Z,48.61
2016-03-16T01:45:44.199Z,48.9
2016-03-16T01:46:44.233Z,48.71
2016-03-16T01:47:44.298Z,48.71
2016-03-16T01:48:44.348Z,48.71
2016-03-16T01:49:44.398Z,48.61
2016-03-16T01:50:44.619Z,48.71
2016-03-16T01:51:44.497Z,48.8
2016-03-16T01:52:44.562Z,48.9
2016-03-16T01:53:44.628Z,49
2016-03-16T01:54:44.661Z,48.9
2016-03-16T01:55:44.695Z,48.9
2016-03-16T01:56:44.761Z,49
2016-03-16T01:57:44.842Z,49.29
2016-03-16T01:58:44.859Z,49.1
2016-03-16T01:59:44.894Z,49
2016-03-16T02:00:44.975Z,49.1
2016-03-16T02:01:45.024Z,48.71
2016-03-16T02:02:45.058Z,48.71
2016-03-16T02:03:45.092Z,48.71
2016-03-16T02:04:45.188Z,49.1
2016-03-16T02:05:45.238Z,49
2016-03-16T02:06:45.255Z,49.1
2016-03-16T02:07:45.320Z,48.71
2016-03-16T02:08:45.385Z,48.8
2016-03-16T02:09:45.420Z,48.9
2016-03-16T02:10:45.453Z,48.8
2016-03-16T02:11:45.518Z,48.9
2016-03-16T02:12:45.568Z,49.19
2016-03-16T02:13:45.618Z,48.8
2016-03-16T02:14:45.667Z,48.8
2016-03-16T02:15:45.747Z,48.8
2016-03-16T02:16:45.782Z,49.29
2016-03-16T02:17:45.816Z,49.29
2016-03-16T02:18:45.881Z,49.29
2016-03-16T02:19:45.930Z,48.9
2016-03-16T02:20:45.951Z,49.1
2016-03-16T02:21:45.999Z,49.36
2016-03-16T02:22:46.081Z,49.38
2016-03-16T02:23:46.114Z,49.38
2016-03-16T02:24:46.179Z,49
2016-03-16T02:25:46.245Z,49.29
2016-03-16T02:26:46.262Z,49.48
2016-03-16T02:27:46.328Z,49.38
2016-03-16T02:28:46.377Z,49.29
2016-03-16T02:29:46.443Z,49
2016-03-16T02:30:46.461Z,49
2016-03-16T02:31:46.526Z,49.1
2016-03-16T02:32:46.592Z,49.19
2016-03-16T02:33:46.610Z,49.1
2016-03-16T02:34:46.675Z,48.9
2016-03-16T02:35:46.741Z,49.29
2016-03-16T02:36:46.775Z,48.71
2016-03-16T02:37:46.871Z,48.71
2016-03-16T02:38:46.874Z,48.9
2016-03-16T02:39:46.954Z,48.9
2016-03-16T02:40:46.988Z,48.78
2016-03-16T02:41:47.038Z,48.8
2016-03-16T02:42:47.103Z,48.97
2016-03-16T02:43:47.152Z,49
2016-03-16T02:44:47.202Z,49.1
2016-03-16T02:45:47.235Z,49
2016-03-16T02:46:47.301Z,49
2016-03-16T02:47:47.350Z,49.1
2016-03-16T02:48:47.385Z,48.8
2016-03-16T02:49:47.449Z,48.97
2016-03-16T02:50:47.499Z,48.9
2016-03-16T02:51:47.564Z,48.9
2016-03-16T02:52:47.582Z,48.8
2016-03-16T02:53:47.632Z,49
2016-03-16T02:54:47.713Z,49.1
2016-03-16T02:55:47.732Z,48.8
2016-03-16T02:56:47.797Z,49.29
2016-03-16T02:57:47.878Z,49
2016-03-16T02:58:47.895Z,49
2016-03-16T02:59:47.961Z,48.69
2016-03-16T03:00:48.011Z,48.88
2016-03-16T03:01:48.061Z,49.16
2016-03-16T03:02:48.094Z,49
2016-03-16T03:03:48.174Z,48.9
2016-03-16T03:04:48.193Z,48.8
2016-03-16T03:05:47.508Z,48.88
2016-03-16T03:06:48.308Z,49.1
2016-03-16T03:07:48.341Z,48.9
2016-03-16T03:08:48.422Z,49.07
2016-03-16T03:09:48.457Z,48.97
2016-03-16T03:10:48.553Z,48.88
2016-03-16T03:11:48.555Z,48.9
2016-03-16T03:12:48.605Z,49.16
2016-03-16T03:13:48.655Z,49.07
2016-03-16T03:14:48.705Z,48.8
2016-03-16T03:15:48.754Z,48.8
2016-03-16T03:16:48.803Z,48.61
2016-03-16T03:17:48.854Z,49.1
2016-03-16T03:18:48.934Z,48.78
2016-03-16T03:19:48.952Z,49.26
2016-03-16T03:20:49.018Z,48.59
2016-03-16T03:21:49.082Z,48.8
2016-03-16T03:22:49.132Z,48.69
2016-03-16T03:23:49.182Z,48.8
2016-03-16T03:24:49.231Z,48.71
2016-03-16T03:25:49.296Z,49.26
2016-03-16T03:26:49.299Z,49.29
2016-03-16T03:27:49.395Z,49.36
2016-03-16T03:28:49.414Z,49.45
2016-03-16T03:29:49.464Z,49.29
2016-03-16T03:30:49.529Z,48.8
2016-03-16T03:31:49.562Z,48.78
2016-03-16T03:32:49.644Z,48.97
2016-03-16T03:33:49.693Z,48.78
2016-03-16T03:34:49.712Z,49.07
2016-03-16T03:35:49.792Z,48.69
2016-03-16T03:36:49.825Z,49.07
2016-03-16T03:37:49.876Z,49.26
2016-03-16T03:38:49.910Z,49.16
2016-03-16T03:39:49.990Z,49.36
2016-03-16T03:40:50.024Z,49.57
2016-03-16T03:41:50.074Z,49.38
2016-03-16T03:42:50.124Z,49.16
2016-03-16T03:43:50.219Z,49.1
2016-03-16T03:44:50.238Z,49.07
2016-03-16T03:45:50.272Z,49.38
2016-03-16T03:46:50.322Z,49.16
2016-03-16T03:47:50.371Z,48.9
2016-03-16T03:48:50.437Z,49.07
2016-03-16T03:49:50.471Z,49.36
2016-03-16T03:50:50.535Z,48.8
2016-03-16T03:51:50.585Z,48.52
2016-03-16T03:52:50.634Z,48.78
2016-03-16T03:53:50.700Z,48.97
2016-03-16T03:54:50.733Z,49.26
2016-03-16T03:55:50.783Z,49.07
2016-03-16T03:56:50.833Z,48.88
2016-03-16T03:57:50.882Z,49.16
2016-03-16T03:58:50.932Z,48.78
2016-03-16T03:59:50.981Z,48.78
2016-03-16T04:00:51.031Z,49.07
2016-03-16T04:01:51.081Z,49.07
2016-03-16T04:02:51.131Z,48.59
2016-03-16T04:03:51.180Z,48.88
2016-03-16T04:04:51.244Z,48.88
2016-03-16T04:05:51.294Z,49.07
2016-03-16T04:06:51.328Z,48.88
2016-03-16T04:07:51.393Z,48.69
2016-03-16T04:08:51.443Z,48.69
2016-03-16T04:09:51.493Z,48.88
2016-03-16T04:10:51.558Z,48.78
2016-03-16T04:11:51.608Z,49.07
2016-03-16T04:12:51.626Z,48.97
2016-03-16T04:13:51.691Z,48.88
2016-03-16T04:14:51.756Z,49.07
2016-03-16T04:15:51.790Z,48.97
2016-03-16T04:16:51.840Z,48.49
2016-03-16T04:17:51.904Z,48.88
2016-03-16T04:18:51.938Z,48.69
2016-03-16T04:19:52.004Z,48.97
2016-03-16T04:20:52.054Z,48.78
2016-03-16T04:21:52.087Z,48.69
2016-03-16T04:22:52.154Z,49.16
2016-03-16T04:23:52.187Z,48.69
2016-03-16T04:24:52.251Z,49.07
2016-03-16T04:25:52.301Z,48.88
2016-03-16T04:26:52.382Z,48.97
2016-03-16T04:27:52.401Z,48.78
2016-03-16T04:28:52.450Z,48.88
2016-03-16T04:29:52.500Z,48.69
2016-03-16T04:30:52.534Z,48.69
2016-03-16T04:31:52.615Z,48.78
2016-03-16T04:32:52.648Z,49.07
2016-03-16T04:33:52.714Z,48.88
2016-03-16T04:34:52.764Z,49.07
2016-03-16T04:35:52.797Z,48.88
2016-03-16T04:36:52.878Z,49.26
2016-03-16T04:37:52.911Z,48.78
2016-03-16T04:38:52.947Z,48.69
2016-03-16T04:39:53.011Z,48.88
2016-03-16T04:40:53.077Z,49.16
2016-03-16T04:41:53.110Z,48.97
2016-03-16T04:42:53.160Z,48.88
2016-03-16T04:43:53.225Z,48.88
2016-03-16T04:44:53.259Z,48.88
2016-03-16T04:45:53.308Z,48.78
2016-03-16T04:46:53.358Z,49.07
2016-03-16T04:47:53.407Z,48.88
2016-03-16T04:48:53.473Z,48.88
2016-03-16T04:49:53.507Z,48.97
2016-03-16T04:50:53.572Z,48.88
2016-03-16T04:51:53.621Z,49.07
2016-03-16T04:52:53.655Z,48.88
2016-03-16T04:53:53.704Z,48.97
2016-03-16T04:54:53.785Z,48.88
2016-03-16T04:55:53.070Z,48.78
2016-03-16T04:56:53.870Z,48.88
2016-03-16T04:57:53.934Z,49.07
2016-03-16T04:58:53.828Z,48.88
2016-03-16T04:59:54.003Z,49.07
2016-03-16T05:00:54.083Z,48.69
2016-03-16T05:01:54.133Z,48.88
2016-03-16T05:02:54.182Z,49.36
2016-03-16T05:03:54.232Z,49.36
2016-03-16T05:04:54.281Z,49.26
2016-03-16T05:05:54.331Z,48.97
2016-03-16T05:06:54.386Z,49.26
2016-03-16T05:07:54.436Z,49.16
2016-03-16T05:08:54.470Z,49.07
2016-03-16T05:09:54.520Z,48.88
2016-03-16T05:10:54.584Z,48.88
2016-03-16T05:11:54.634Z,48.78
2016-03-16T05:12:54.683Z,48.78
2016-03-16T05:13:54.577Z,49.07
2016-03-16T05:14:54.783Z,49.07
2016-03-16T05:15:54.833Z,48.69
2016-03-16T05:16:54.867Z,48.97
2016-03-16T05:17:54.916Z,49.26
2016-03-16T05:18:54.997Z,48.97
2016-03-16T05:19:55.046Z,48.78
2016-03-16T05:20:55.096Z,48.88
2016-03-16T05:21:55.146Z,48.88
2016-03-16T05:22:55.194Z,49.07
2016-03-16T05:23:55.229Z,49.07
2016-03-16T05:24:55.279Z,48.97
2016-03-16T05:25:55.313Z,49.07
2016-03-16T05:26:55.394Z,49.36
2016-03-16T05:27:55.427Z,49.26
2016-03-16T05:28:55.493Z,49.26
2016-03-16T05:29:55.542Z,49.07
2016-03-16T05:30:55.591Z,49.16
2016-03-16T05:31:55.626Z,49.26
2016-03-16T05:32:55.690Z,49.36
2016-03-16T05:33:55.740Z,49.26
2016-03-16T05:34:55.790Z,49.07
2016-03-16T05:35:55.839Z,49.45
2016-03-16T05:36:55.889Z,49.07
2016-03-16T05:37:55.923Z,49.36
2016-03-16T05:38:55.988Z,49.36
2016-03-16T05:39:56.023Z,49.26
2016-03-16T05:40:56.103Z,49.26
2016-03-16T05:41:56.137Z,49.65
2016-03-16T05:42:56.202Z,49.26
2016-03-16T05:43:56.267Z,49.26
2016-03-16T05:44:56.301Z,49.45
2016-03-16T05:45:56.335Z,49.36
2016-03-16T05:46:56.400Z,49.16
2016-03-16T05:47:56.449Z,49.26
2016-03-16T05:48:56.499Z,49.45
2016-03-16T05:49:56.549Z,49.55
2016-03-16T05:50:56.583Z,49.84
2016-03-16T05:51:56.648Z,49.65
2016-03-16T05:52:56.682Z,49.55
2016-03-16T05:53:56.763Z,49.45
2016-03-16T05:54:56.812Z,49.36
2016-03-16T05:55:56.846Z,49.65
2016-03-16T05:56:56.896Z,49.55
2016-03-16T05:57:56.961Z,49.55
2016-03-16T05:58:57.011Z,49.45
2016-03-16T05:59:57.061Z,49.65
2016-03-16T06:00:57.110Z,49.93
2016-03-16T06:01:57.144Z,49.65
2016-03-16T06:02:57.194Z,49.65
2016-03-16T06:03:57.227Z,50.12
2016-03-16T06:04:57.308Z,49.93
2016-03-16T06:05:57.389Z,50.03
2016-03-16T06:06:57.392Z,50.12
2016-03-16T06:07:57.456Z,50.03
2016-03-16T06:08:57.522Z,49.93
2016-03-16T06:09:57.540Z,50.41
2016-03-16T06:10:57.605Z,50.41
2016-03-16T06:11:57.671Z,50.41
2016-03-16T06:12:57.704Z,50.12
2016-03-16T06:13:57.739Z,50.7
2016-03-16T06:14:57.789Z,49.74
2016-03-16T06:15:57.869Z,50.22
2016-03-16T06:16:57.903Z,50.41
2016-03-16T06:17:57.967Z,49.84
2016-03-16T06:18:58.017Z,50.12
2016-03-16T06:19:58.083Z,49.93
2016-03-16T06:20:58.100Z,50.41
2016-03-16T06:21:58.166Z,50.41
2016-03-16T06:22:58.231Z,50.12
2016-03-16T06:23:58.249Z,46.48
2016-03-16T06:24:58.300Z,43.41
2016-03-16T06:25:58.380Z,43.2
2016-03-16T06:26:58.414Z,41.28
2016-03-16T06:27:58.449Z,42.24
2016-03-16T06:28:58.514Z,40.88
2016-03-16T06:29:58.546Z,40.98
2016-03-16T06:30:58.627Z,42.2
2016-03-16T06:31:58.662Z,43.83
2016-03-16T06:32:58.712Z,44.29
2016-03-16T06:33:58.777Z,45.05
2016-03-16T06:34:58.810Z,45.17
2016-03-16T06:35:58.860Z,46.31
2016-03-16T06:36:58.909Z,45.55
2016-03-16T06:37:58.960Z,46.41
2016-03-16T06:38:59.009Z,47.18
2016-03-16T06:39:59.073Z,47.08
2016-03-16T06:40:59.108Z,46.82
2016-03-16T06:41:59.204Z,46.53
2016-03-16T06:42:59.222Z,47.68
2016-03-16T06:43:59.273Z,47.3
2016-03-16T06:44:59.322Z,47.2
2016-03-16T06:45:59.387Z,47.89
2016-03-16T06:46:59.390Z,47.22
2016-03-16T06:47:59.502Z,47.32
2016-03-16T06:48:59.536Z,47.22
2016-03-16T06:49:59.569Z,47.22
2016-03-16T06:50:59.603Z,47.13
2016-03-16T06:51:59.684Z,47.22
2016-03-16T06:52:59.687Z,47.13
2016-03-16T06:53:59.769Z,47.32
2016-03-16T06:54:59.802Z,47.34
2016-03-16T06:55:59.852Z,47.34
2016-03-16T06:56:59.901Z,46.86
2016-03-16T06:57:59.950Z,46.77
2016-03-16T06:58:59.999Z,47.34
2016-03-16T07:00:00.049Z,47.15
2016-03-16T07:01:00.115Z,47.82
2016-03-16T07:02:00.149Z,47.15
2016-03-16T07:03:00.214Z,47.44
2016-03-16T07:04:00.249Z,47.15
2016-03-16T07:05:00.298Z,47.34
2016-03-16T07:06:00.363Z,47.34
2016-03-16T07:07:00.413Z,47.15
2016-03-16T07:08:00.462Z,47.34
2016-03-16T07:09:00.512Z,47.34
2016-03-16T07:10:00.545Z,47.34
2016-03-16T07:11:00.626Z,47.37
2016-03-16T07:12:00.519Z,46.7
2016-03-16T07:13:00.709Z,47.27
2016-03-16T07:14:00.806Z,46.89
2016-03-16T07:15:00.839Z,46.79
2016-03-16T07:16:00.873Z,46.98
2016-03-16T07:17:00.939Z,47.56
2016-03-16T07:18:00.989Z,47.66
2016-03-16T07:19:01.023Z,46.98
2016-03-16T07:20:01.041Z,46.98
2016-03-16T07:21:01.122Z,46.98
2016-03-16T07:22:01.155Z,47.17
2016-03-16T07:23:01.267Z,47.27
2016-03-16T07:24:01.255Z,46.98
2016-03-16T07:25:01.336Z,46.89
2016-03-16T07:26:01.370Z,46.89
2016-03-16T07:27:01.436Z,46.22
2016-03-16T07:28:01.500Z,46.62
2016-03-16T07:29:01.534Z,46.91
2016-03-16T07:30:01.583Z,46.91
2016-03-16T07:31:01.633Z,46.53
2016-03-16T07:32:01.666Z,46.53
2016-03-16T07:33:01.732Z,45.86
2016-03-16T07:34:01.766Z,46.24
2016-03-16T07:35:01.831Z,45.37
2016-03-16T07:36:01.881Z,44.63
2016-03-16T07:37:01.915Z,43.5
2016-03-16T07:38:01.996Z,41.7
2016-03-16T07:39:02.061Z,40.66
2016-03-16T07:40:02.095Z,39.72
2016-03-16T07:41:02.129Z,38.7
2016-03-16T07:42:02.193Z,37.64
2016-03-16T07:43:02.228Z,36.6
2016-03-16T07:44:02.292Z,35.75
2016-03-16T07:45:02.326Z,36.04
2016-03-16T07:46:02.376Z,35.67
2016-03-16T07:47:02.441Z,35.58
2016-03-16T07:48:02.475Z,35.19
2016-03-16T07:49:02.556Z,35.28
2016-03-16T07:50:02.606Z,35.19
2016-03-16T07:51:02.640Z,35.19
2016-03-16T07:52:02.705Z,35.28
2016-03-16T07:53:02.770Z,31.72
2016-03-16T07:54:02.819Z,31.7
2016-03-16T07:55:02.885Z,32.95
2016-03-16T07:56:02.919Z,33.03
2016-03-16T07:57:02.969Z,32.92
2016-03-16T07:58:03.081Z,32.82
2016-03-16T07:59:03.053Z,33.4
2016-03-16T08:00:03.133Z,32.81
2016-03-16T08:01:03.183Z,33.77
2016-03-16T08:02:03.232Z,33
2016-03-16T08:03:03.282Z,32.64
2016-03-16T08:04:03.346Z,32.64
2016-03-16T08:05:03.396Z,31.59
2016-03-16T08:06:03.446Z,30.07
2016-03-16T08:07:03.492Z,28.05
2016-03-16T08:08:03.526Z,28.84
2016-03-16T08:09:03.591Z,27.98
2016-03-16T08:10:03.750Z,27.6
2016-03-16T08:11:03.705Z,27.51
2016-03-16T08:12:03.755Z,27.44
2016-03-16T08:13:03.805Z,27.14
2016-03-16T08:14:03.854Z,27.14
2016-03-16T08:15:03.919Z,26.37
2016-03-16T08:16:03.953Z,26.86
2016-03-16T08:17:04.003Z,27.04
2016-03-16T08:18:04.083Z,27.81
2016-03-16T08:19:04.118Z,28.56
2016-03-16T08:20:04.214Z,29.32
2016-03-16T08:21:04.217Z,29.22
2016-03-16T08:22:04.329Z,30.46
2016-03-16T08:23:04.331Z,31.41
2016-03-16T08:24:04.381Z,33.31
2016-03-16T08:25:04.431Z,34.54
2016-03-16T08:26:04.496Z,35.77
2016-03-16T08:27:04.530Z,36.82
2016-03-16T08:28:04.595Z,37.37
2016-03-16T08:29:04.645Z,38.04
2016-03-16T08:30:04.695Z,38.6
2016-03-16T08:31:04.743Z,39.28
2016-03-16T08:32:04.793Z,39.64
2016-03-16T08:33:04.859Z,40.41
2016-03-16T08:34:04.876Z,40.7
2016-03-16T08:35:04.942Z,40.79
2016-03-16T08:36:04.976Z,41.54
2016-03-16T08:37:05.056Z,42.4
2016-03-16T08:38:05.106Z,42.5
2016-03-16T08:39:05.140Z,42.79
2016-03-16T08:40:05.221Z,42.3
2016-03-16T08:41:05.255Z,43.15
2016-03-16T08:42:05.319Z,43.82
2016-03-16T08:43:05.354Z,43.44
2016-03-16T08:44:05.419Z,42.77
2016-03-16T08:45:05.453Z,42.29
2016-03-16T08:46:05.518Z,42.96
2016-03-16T08:47:05.569Z,43.05
2016-03-16T08:48:05.602Z,42.96
2016-03-16T08:49:05.667Z,43.05
2016-03-16T08:50:05.716Z,42.86
2016-03-16T08:51:05.766Z,42.57
2016-03-16T08:52:05.832Z,43.03
2016-03-16T08:53:05.881Z,43.23
2016-03-16T08:54:05.930Z,43.41
2016-03-16T08:55:05.980Z,43.6
2016-03-16T08:56:06.015Z,43.7
2016-03-16T08:57:06.063Z,43.7
2016-03-16T08:58:06.129Z,43.51
2016-03-16T08:59:06.179Z,42.84
2016-03-16T09:00:06.228Z,43.6
2016-03-16T09:01:06.309Z,43.41
2016-03-16T09:02:06.312Z,43.6
2016-03-16T09:03:06.392Z,43.7
2016-03-16T09:04:06.426Z,43.9
2016-03-16T09:05:06.506Z,43.8
2016-03-16T09:06:06.542Z,43.77
2016-03-16T09:07:06.642Z,43.41
2016-03-16T09:08:06.645Z,43.68
2016-03-16T09:09:06.679Z,43.87
2016-03-16T09:10:06.744Z,43.68
2016-03-16T09:11:06.778Z,43.49
2016-03-16T09:12:06.858Z,43.68
2016-03-16T09:13:06.893Z,43.77
2016-03-16T09:14:06.942Z,44.45
2016-03-16T09:15:06.991Z,44.26
2016-03-16T09:16:07.072Z,44.16
2016-03-16T09:17:07.075Z,44.16
2016-03-16T09:18:07.156Z,44.35
2016-03-16T09:19:07.205Z,44.26
2016-03-16T09:20:07.239Z,44.16
2016-03-16T09:21:07.292Z,44.16
2016-03-16T09:22:07.357Z,44.06
2016-03-16T09:23:07.376Z,44.16
2016-03-16T09:24:07.441Z,44.26
2016-03-16T09:25:07.628Z,44.35
2016-03-16T09:26:07.576Z,44.83
2016-03-16T09:27:08.638Z,44.76
2016-03-16T09:28:07.455Z,44.64
2016-03-16T09:29:07.667Z,44.83
2016-03-16T09:30:19.431Z,44.83
2016-03-16T09:31:07.746Z,44.73
2016-03-16T09:32:07.775Z,45.02
2016-03-16T09:33:07.835Z,45.02
2016-03-16T09:34:07.896Z,45.21
2016-03-16T09:35:07.895Z,44.93
2016-03-16T09:36:07.958Z,44.83
2016-03-16T09:37:08.021Z,44.83
2016-03-16T09:38:08.037Z,45.02
2016-03-16T09:39:08.100Z,45.02
2016-03-16T09:40:08.148Z,44.93
2016-03-16T09:41:08.182Z,44.93
2016-03-16T09:42:08.262Z,44.64
2016-03-16T09:43:08.295Z,44.64
2016-03-16T09:44:08.375Z,44.54
2016-03-16T09:45:08.393Z,44.45
2016-03-16T09:46:08.427Z,44.64
2016-03-16T09:47:08.508Z,44.54
2016-03-16T09:48:08.557Z,44.26
2016-03-16T09:49:08.592Z,44.27
2016-03-16T09:50:08.641Z,44.27
2016-03-16T09:51:08.722Z,44.56
2016-03-16T09:52:08.817Z,44.56
2016-03-16T09:53:08.805Z,44.16
2016-03-16T09:54:08.855Z,44.16
2016-03-16T09:55:08.904Z,44.09
2016-03-16T09:56:08.970Z,44.09
2016-03-16T09:57:08.987Z,44.37
2016-03-16T09:58:09.053Z,44.09
2016-03-16T09:59:09.102Z,44.09
2016-03-16T10:00:09.152Z,43.99
2016-03-16T10:01:09.201Z,44.06
2016-03-16T10:02:09.267Z,44.06
2016-03-16T10:03:09.301Z,43.99
2016-03-16T10:04:09.349Z,43.8
2016-03-16T10:05:09.415Z,43.7
2016-03-16T10:06:09.449Z,43.68
2016-03-16T10:07:09.514Z,43.97
2016-03-16T10:08:09.549Z,43.9
2016-03-16T10:09:09.613Z,44.09
2016-03-16T10:10:09.662Z,44.06
2016-03-16T10:11:09.713Z,43.97
2016-03-16T10:12:09.746Z,44.09
2016-03-16T10:13:09.812Z,44.09
2016-03-16T10:14:09.876Z,43.9
2016-03-16T10:15:09.912Z,44.18
2016-03-16T10:16:09.976Z,44.09
2016-03-16T10:17:10.026Z,44.37
2016-03-16T10:18:10.076Z,44.06
2016-03-16T10:19:10.125Z,44.35
2016-03-16T10:20:10.159Z,44.35
2016-03-16T10:21:10.224Z,44.45
2016-03-16T10:22:10.259Z,44.27
2016-03-16T10:23:10.339Z,44.45
2016-03-16T10:24:10.389Z,44.64
2016-03-16T10:25:10.406Z,44.54
2016-03-16T10:26:10.456Z,44.54
2016-03-16T10:27:10.522Z,44.54
2016-03-16T10:28:10.586Z,44.93
2016-03-16T10:29:10.621Z,44.26
2016-03-16T10:30:10.655Z,44.35
2016-03-16T10:31:10.719Z,44.73
2016-03-16T10:32:10.769Z,44.35
2016-03-16T10:33:10.819Z,44.26
2016-03-16T10:34:10.852Z,44.83
2016-03-16T10:35:10.918Z,44.64
2016-03-16T10:36:10.999Z,44.35
2016-03-16T10:37:11.018Z,44.26
2016-03-16T10:38:11.051Z,44.54
2016-03-16T10:39:11.116Z,44.54
2016-03-16T10:40:11.165Z,44.45
2016-03-16T10:41:11.215Z,44.54
2016-03-16T10:42:11.281Z,44.26
2016-03-16T10:43:11.298Z,44.35
2016-03-16T10:44:11.364Z,44.45
2016-03-16T10:45:11.414Z,44.45
2016-03-16T10:46:11.478Z,44.54
2016-03-16T10:47:11.528Z,44.54
2016-03-16T10:48:11.562Z,44.54
2016-03-16T10:49:11.612Z,44.64
2016-03-16T10:50:11.677Z,44.73
2016-03-16T10:51:11.727Z,44.54
2016-03-16T10:52:11.792Z,44.54
2016-03-16T10:53:11.826Z,44.73
2016-03-16T10:54:11.891Z,44.83
2016-03-16T10:55:11.925Z,44.83
2016-03-16T10:56:11.975Z,44.83
2016-03-16T10:57:12.025Z,44.73
2016-03-16T10:58:12.058Z,44.83
2016-03-16T10:59:12.123Z,44.93
2016-03-16T11:00:12.188Z,44.73
2016-03-16T11:01:12.208Z,44.93
2016-03-16T11:02:12.256Z,44.73
2016-03-16T11:03:12.322Z,44.93
2016-03-16T11:04:12.372Z,44.83
2016-03-16T11:05:12.436Z,44.73
2016-03-16T11:06:12.517Z,44.45
2016-03-16T11:07:12.519Z,44.54
2016-03-16T11:08:12.569Z,44.35
2016-03-16T11:09:12.635Z,44.54
2016-03-16T11:10:12.653Z,44.64
2016-03-16T11:11:12.734Z,44.73
2016-03-16T11:12:12.783Z,44.64
2016-03-16T11:13:12.818Z,44.54
2016-03-16T11:14:12.882Z,44.54
2016-03-16T11:15:12.932Z,44.73
2016-03-16T11:16:12.982Z,44.26
2016-03-16T11:17:13.032Z,44.45
2016-03-16T11:18:13.081Z,44.54
2016-03-16T11:19:13.131Z,44.35
2016-03-16T11:20:13.180Z,44.54
2016-03-16T11:21:13.229Z,44.64
2016-03-16T11:22:13.248Z,44.54
2016-03-16T11:23:13.328Z,44.54
2016-03-16T11:24:13.379Z,44.64
2016-03-16T11:25:13.428Z,44.35
2016-03-16T11:26:13.477Z,44.54
2016-03-16T11:27:13.511Z,44.54
2016-03-16T11:28:13.576Z,44.54
2016-03-16T11:29:13.626Z,44.54
2016-03-16T11:30:13.661Z,44.73
2016-03-16T11:31:13.710Z,44.64
2016-03-16T11:32:13.025Z,44.73
2016-03-16T11:33:13.825Z,44.83
2016-03-16T11:34:13.858Z,44.73
2016-03-16T11:35:13.923Z,44.64
2016-03-16T11:36:13.973Z,44.73
2016-03-16T11:37:14.022Z,44.73
2016-03-16T11:38:14.072Z,44.93
2016-03-16T11:39:14.121Z,44.73
2016-03-16T11:40:14.188Z,44.83
2016-03-16T11:41:14.221Z,44.83
2016-03-16T11:42:14.270Z,44.93
2016-03-16T11:43:14.336Z,44.83
2016-03-16T11:44:14.354Z,44.93
2016-03-16T11:45:14.419Z,45.02
2016-03-16T11:46:14.468Z,44.93
2016-03-16T11:47:14.518Z,44.93
2016-03-16T11:48:14.584Z,45.02
2016-03-16T11:49:14.618Z,45.12
2016-03-16T11:50:14.682Z,45.02
2016-03-16T11:51:14.717Z,44.83
2016-03-16T11:52:14.766Z,45.02
2016-03-16T11:53:14.815Z,45.02
2016-03-16T11:54:14.865Z,44.93
2016-03-16T11:55:14.914Z,45.02
2016-03-16T11:56:14.965Z,45.02
2016-03-16T11:57:15.029Z,44.83
2016-03-16T11:58:15.079Z,44.83
2016-03-16T11:59:15.113Z,45.02
2016-03-16T12:00:15.209Z,45.02
2016-03-16T12:01:15.228Z,45.12
2016-03-16T12:02:15.292Z,45.21
2016-03-16T12:03:15.327Z,45.02
2016-03-16T12:04:15.377Z,45.02
2016-03-16T12:05:15.426Z,44.73
2016-03-16T12:06:15.475Z,45.12
2016-03-16T12:07:15.525Z,45.69
2016-03-16T12:08:15.591Z,44.83
2016-03-16T12:09:15.624Z,45.12
2016-03-16T12:10:15.658Z,45.21
2016-03-16T12:11:15.724Z,45.21
2016-03-16T12:12:15.773Z,44.93
2016-03-16T12:13:15.822Z,45.69
2016-03-16T12:14:15.888Z,45.02
2016-03-16T12:15:15.952Z,45.02
2016-03-16T12:16:15.987Z,44.93
2016-03-16T12:17:16.037Z,44.83
2016-03-16T12:18:16.102Z,45.02
2016-03-16T12:19:16.120Z,44.93
2016-03-16T12:20:16.185Z,44.83
2016-03-16T12:21:16.219Z,44.93
2016-03-16T12:22:16.284Z,45.21
2016-03-16T12:23:16.349Z,45.21
2016-03-16T12:24:16.367Z,44.93
2016-03-16T12:25:16.417Z,45.5
2016-03-16T12:26:16.482Z,44.93
2016-03-16T12:27:16.548Z,45.21
2016-03-16T12:28:16.581Z,45.21
2016-03-16T12:29:16.631Z,45.12
2016-03-16T12:30:16.712Z,45.02
2016-03-16T12:31:16.731Z,45.12
2016-03-16T12:32:16.764Z,45.12
2016-03-16T12:33:16.845Z,45.02
2016-03-16T12:34:16.879Z,44.93
2016-03-16T12:35:16.944Z,44.83
2016-03-16T12:36:16.963Z,45.4
2016-03-16T12:37:17.043Z,45.21
2016-03-16T12:38:17.078Z,45.12
2016-03-16T12:39:17.127Z,45.21
2016-03-16T12:40:17.192Z,45.21
2016-03-16T12:41:17.241Z,44.83
2016-03-16T12:42:17.260Z,45.5
2016-03-16T12:43:17.341Z,45.21
2016-03-16T12:44:17.375Z,45.12
2016-03-16T12:45:17.268Z,44.83
2016-03-16T12:46:17.489Z,45.79
2016-03-16T12:47:17.555Z,44.93
2016-03-16T12:48:17.588Z,45.12
2016-03-16T12:49:17.623Z,45.02
2016-03-16T12:50:17.687Z,45.59
2016-03-16T12:51:17.738Z,44.73
2016-03-16T12:52:17.802Z,45.12
2016-03-16T12:53:17.837Z,45.12
2016-03-16T12:54:17.886Z,44.93
2016-03-16T12:55:17.935Z,45.12
2016-03-16T12:56:17.985Z,44.93
2016-03-16T12:57:18.020Z,44.93
2016-03-16T12:58:18.084Z,45.12